Time;durP1;ratioP1;P1;durP2;ratioP2;P2;SDS_P1;SDS_P2;PMS_P1;PMS_P2;Temp;Humidity;BMP_temperature;BMP_pressure;BME280_temperature;BME280_humidity;BME280_pressure;Samples;Min_cycle;Max_cycle;Signal;HPM_P1;HPM_P2
2021/11/03 00:00:31;;;;;;;12.57;5.50;;;3.10;99.90;;;;;;2081581;28;20204;-65
2021/11/03 00:01:34;;;;;;;9.43;5.28;;;3.10;99.90;;;;;;2081469;28;20178;-64
2021/11/03 00:02:35;;;;;;;6.38;4.18;;;3.10;99.90;;;;;;2081537;28;20196;-65
2021/11/03 00:03:36;;;;;;;9.10;4.97;;;3.10;99.90;;;;;;2082148;28;20201;-64
2021/11/03 00:04:39;;;;;;;8.40;5.00;;;3.10;99.90;;;;;;2082030;28;20193;-64
2021/11/03 00:05:44;;;;;;;9.10;5.00;;;3.10;99.90;;;;;;2081141;28;20171;-64
2021/11/03 00:06:45;;;;;;;7.25;4.50;;;3.00;99.90;;;;;;2081273;28;20189;-64
2021/11/03 00:07:46;;;;;;;12.60;4.70;;;3.10;99.90;;;;;;2082000;28;20229;-64
2021/11/03 00:08:48;;;;;;;10.70;4.40;;;3.00;99.90;;;;;;2081987;28;20431;-64
2021/11/03 00:09:49;;;;;;;4.30;2.83;;;3.00;99.90;;;;;;2081426;28;20181;-64
2021/11/03 00:10:51;;;;;;;5.60;3.50;;;2.90;99.90;;;;;;2081431;28;20178;-64
2021/11/03 00:11:52;;;;;;;7.10;3.13;;;3.00;99.90;;;;;;2081228;28;20214;-64
2021/11/03 00:12:53;;;;;;;6.05;3.47;;;3.00;99.90;;;;;;2081481;28;20183;-64
2021/11/03 00:13:53;;;;;;;4.83;3.27;;;3.00;99.90;;;;;;2082223;28;20680;-64
2021/11/03 00:14:54;;;;;;;5.33;3.13;;;3.00;99.90;;;;;;2081925;28;20185;-64
2021/11/03 00:15:56;;;;;;;3.70;2.70;;;3.00;99.90;;;;;;2082070;28;20186;-64
2021/11/03 00:16:57;;;;;;;5.32;2.78;;;3.10;99.90;;;;;;2081579;28;20708;-64
2021/11/03 00:17:58;;;;;;;5.70;2.87;;;3.10;99.90;;;;;;2081965;28;20237;-64
2021/11/03 00:18:58;;;;;;;4.53;2.90;;;3.10;99.90;;;;;;2081981;28;20194;-64
2021/11/03 00:19:59;;;;;;;4.07;2.40;;;3.20;99.90;;;;;;2082094;28;20181;-64
2021/11/03 00:21:02;;;;;;;3.63;2.23;;;3.30;99.90;;;;;;2081128;28;20614;-64
2021/11/03 00:22:04;;;;;;;3.83;2.28;;;3.30;99.90;;;;;;2081432;28;20324;-64
2021/11/03 00:23:05;;;;;;;4.95;2.50;;;3.40;99.90;;;;;;2081181;28;20195;-64
2021/11/03 00:24:07;;;;;;;3.10;2.25;;;3.40;99.90;;;;;;2081222;28;20187;-64
2021/11/03 00:25:09;;;;;;;2.55;2.20;;;3.50;99.90;;;;;;2081530;28;20675;-64
2021/11/03 00:26:09;;;;;;;2.55;2.20;;;3.60;99.90;;;;;;2081971;28;20583;-64
2021/11/03 00:27:11;;;;;;;4.30;2.60;;;3.60;99.90;;;;;;2081835;28;20200;-64
2021/11/03 00:28:15;;;;;;;6.32;2.67;;;3.60;99.90;;;;;;2082019;28;20181;-64
2021/11/03 00:29:16;;;;;;;3.72;2.38;;;3.70;99.90;;;;;;2081786;28;20657;-64
2021/11/03 00:30:17;;;;;;;3.47;2.33;;;3.70;99.90;;;;;;2081973;28;20179;-64
2021/11/03 00:31:18;;;;;;;5.33;2.20;;;3.70;99.90;;;;;;2081665;28;20721;-64
2021/11/03 00:32:19;;;;;;;3.03;2.33;;;3.70;99.90;;;;;;2081754;28;20175;-64
2021/11/03 00:33:25;;;;;;;3.27;2.03;;;3.70;99.90;;;;;;2082050;28;20224;-64
2021/11/03 00:34:26;;;;;;;2.33;1.70;;;3.70;99.90;;;;;;2081961;28;20167;-64
2021/11/03 00:35:27;;;;;;;2.97;2.00;;;3.80;99.90;;;;;;2081800;28;20212;-64
2021/11/03 00:36:27;;;;;;;3.33;2.03;;;3.80;99.90;;;;;;2082049;28;20194;-64
2021/11/03 00:37:28;;;;;;;2.47;1.80;;;3.80;99.90;;;;;;2081726;28;20196;-64
2021/11/03 00:38:29;;;;;;;3.63;2.07;;;3.80;99.90;;;;;;2082067;28;20680;-64
2021/11/03 00:39:30;;;;;;;2.65;1.77;;;3.80;99.90;;;;;;2082015;28;20183;-64
2021/11/03 00:40:31;;;;;;;2.33;2.10;;;3.80;99.90;;;;;;2081746;28;20182;-64
2021/11/03 00:41:32;;;;;;;3.93;3.00;;;3.80;99.90;;;;;;2081674;28;20167;-64
2021/11/03 00:42:33;;;;;;;4.93;3.80;;;3.80;99.90;;;;;;2081690;28;20175;-64
2021/11/03 00:43:35;;;;;;;5.97;3.30;;;3.80;99.90;;;;;;2081983;28;20214;-64
2021/11/03 00:44:35;;;;;;;5.40;3.97;;;3.80;99.90;;;;;;2081729;28;20715;-64
2021/11/03 00:45:36;;;;;;;12.90;4.30;;;3.80;99.90;;;;;;2081870;28;20171;-64
2021/11/03 00:46:37;;;;;;;4.77;3.37;;;3.80;99.90;;;;;;2081740;28;20170;-64
2021/11/03 00:47:38;;;;;;;3.87;3.27;;;3.80;99.90;;;;;;2081693;28;20195;-64
2021/11/03 00:48:38;;;;;;;4.33;3.20;;;3.70;99.90;;;;;;2081705;28;20228;-64
2021/11/03 00:49:40;;;;;;;4.07;3.43;;;3.70;99.90;;;;;;2081683;28;20227;-64
2021/11/03 00:50:41;;;;;;;6.93;3.15;;;3.70;99.90;;;;;;2081883;28;20637;-64
2021/11/03 00:51:43;;;;;;;6.03;3.20;;;3.70;99.90;;;;;;2081503;28;20213;-64
2021/11/03 00:52:43;;;;;;;6.70;3.42;;;3.70;99.90;;;;;;2081643;28;20178;-64
2021/11/03 00:53:44;;;;;;;4.83;3.37;;;3.70;99.90;;;;;;2081755;28;20274;-64
2021/11/03 00:54:45;;;;;;;7.90;3.73;;;3.60;99.90;;;;;;2081622;28;20652;-64
2021/11/03 00:55:46;;;;;;;7.93;3.53;;;3.60;99.90;;;;;;2081782;28;20273;-64
2021/11/03 00:56:48;;;;;;;4.63;3.08;;;3.60;99.90;;;;;;2081614;28;20194;-64
2021/11/03 00:57:48;;;;;;;4.63;2.75;;;3.70;99.90;;;;;;2081629;28;20210;-65
2021/11/03 00:58:49;;;;;;;7.60;3.30;;;3.70;99.90;;;;;;2081658;28;20237;-64
2021/11/03 00:59:50;;;;;;;5.43;3.40;;;3.70;99.90;;;;;;2081789;28;20218;-65
2021/11/03 01:00:50;;;;;;;5.33;3.60;;;3.80;99.90;;;;;;2081554;28;20232;-64
2021/11/03 01:01:51;;;;;;;5.63;3.10;;;3.80;99.90;;;;;;2081444;28;20211;-65
2021/11/03 01:02:52;;;;;;;9.80;3.80;;;3.80;99.90;;;;;;2081614;28;20182;-65
2021/11/03 01:03:53;;;;;;;7.30;3.57;;;3.90;99.90;;;;;;2081724;28;20222;-65
2021/11/03 01:04:53;;;;;;;5.87;3.40;;;3.90;99.90;;;;;;2081641;28;20222;-64
2021/11/03 01:05:54;;;;;;;7.23;3.40;;;3.90;99.90;;;;;;2081636;28;20559;-64
2021/11/03 01:06:55;;;;;;;3.80;2.70;;;3.90;99.90;;;;;;2081502;28;20211;-64
2021/11/03 01:07:56;;;;;;;9.10;3.77;;;3.90;99.90;;;;;;2081695;28;20184;-64
2021/11/03 01:08:57;;;;;;;5.85;3.33;;;3.90;99.90;;;;;;2081646;28;20187;-65
2021/11/03 01:09:58;;;;;;;4.37;2.80;;;3.90;99.90;;;;;;2081634;28;20198;-64
2021/11/03 01:11:00;;;;;;;3.47;2.80;;;3.80;99.90;;;;;;2081478;28;20217;-64
2021/11/03 01:12:01;;;;;;;5.18;3.42;;;3.80;99.90;;;;;;2081593;28;20234;-64
2021/11/03 01:13:02;;;;;;;5.23;3.30;;;3.70;99.90;;;;;;2081559;28;20266;-64
2021/11/03 01:14:07;;;;;;;4.40;3.35;;;3.70;99.90;;;;;;2081701;28;20186;-64
2021/11/03 01:15:12;;;;;;;7.60;4.20;;;3.70;99.90;;;;;;2081483;28;20179;-64
2021/11/03 01:16:13;;;;;;;3.92;2.75;;;3.70;99.90;;;;;;2081552;28;20178;-64
2021/11/03 01:17:14;;;;;;;6.50;3.70;;;3.70;99.90;;;;;;2081407;28;20189;-64
2021/11/03 01:18:15;;;;;;;6.97;3.80;;;3.80;99.90;;;;;;2081838;28;20190;-64
2021/11/03 01:19:15;;;;;;;5.87;3.80;;;3.80;99.90;;;;;;2081565;28;20618;-64
2021/11/03 01:20:16;;;;;;;5.67;3.80;;;3.80;99.90;;;;;;2081525;28;20179;-65
2021/11/03 01:21:17;;;;;;;6.47;3.53;;;3.80;99.90;;;;;;2081344;28;20293;-64
2021/11/03 01:22:18;;;;;;;7.13;3.87;;;3.90;99.90;;;;;;2081433;28;20188;-65
2021/11/03 01:23:20;;;;;;;7.40;4.03;;;3.90;99.90;;;;;;2081541;28;20544;-65
2021/11/03 01:24:21;;;;;;;4.82;3.60;;;3.90;99.90;;;;;;2081700;28;20180;-65
2021/11/03 01:25:24;;;;;;;6.13;3.97;;;4.00;99.90;;;;;;2081519;28;20554;-64
2021/11/03 01:26:25;;;;;;;5.80;3.97;;;4.00;99.90;;;;;;2081552;28;20180;-65
2021/11/03 01:27:26;;;;;;;6.43;3.83;;;4.00;99.90;;;;;;2081654;28;20542;-64
2021/11/03 01:28:27;;;;;;;5.70;3.57;;;4.00;99.90;;;;;;2081684;28;20214;-64
2021/11/03 01:29:28;;;;;;;8.75;4.30;;;4.00;99.90;;;;;;2081625;28;20581;-64
2021/11/03 01:30:29;;;;;;;7.60;4.73;;;4.00;99.90;;;;;;2081701;28;20200;-64
2021/11/03 01:31:29;;;;;;;11.73;4.97;;;4.10;99.90;;;;;;2081258;28;20587;-64
2021/11/03 01:32:30;;;;;;;6.05;4.03;;;4.10;99.90;;;;;;2081239;28;20179;-64
2021/11/03 01:33:31;;;;;;;7.10;4.40;;;4.10;99.90;;;;;;2081474;28;20313;-65
2021/11/03 01:34:31;;;;;;;8.37;4.43;;;4.10;99.90;;;;;;2081382;28;20313;-65
2021/11/03 01:35:33;;;;;;;10.13;5.10;;;4.20;99.90;;;;;;2081484;28;20647;-65
2021/11/03 01:36:34;;;;;;;8.93;5.20;;;4.20;99.90;;;;;;2080742;28;20211;-65
2021/11/03 01:37:36;;;;;;;6.82;4.57;;;4.20;99.90;;;;;;2081252;28;20270;-65
2021/11/03 01:38:36;;;;;;;8.48;4.90;;;4.20;99.90;;;;;;2081468;28;20194;-65
2021/11/03 01:39:37;;;;;;;7.03;4.70;;;4.20;99.90;;;;;;2081177;28;20182;-65
2021/11/03 01:40:42;;;;;;;11.87;5.73;;;4.30;99.90;;;;;;2081315;28;20211;-65
2021/11/03 01:41:43;;;;;;;7.43;4.80;;;4.30;99.90;;;;;;2081268;28;20553;-65
2021/11/03 01:42:44;;;;;;;8.27;5.30;;;4.30;99.90;;;;;;2081192;28;20193;-64
2021/11/03 01:44:11;;;;;;;9.67;5.83;;;4.30;99.90;;;;;;2081332;28;20800;-64
2021/11/03 01:45:16;;;;;;;8.65;5.10;;;4.30;99.90;;;;;;2081298;28;20203;-64
2021/11/03 01:46:39;;;;;;;7.47;4.97;;;4.30;99.90;;;;;;2081330;28;20539;-64
2021/11/03 01:47:44;;;;;;;7.65;5.07;;;4.30;99.90;;;;;;2081432;28;20203;-64
2021/11/03 01:48:45;;;;;;;7.82;5.30;;;4.30;99.90;;;;;;2081221;28;20259;-65
2021/11/03 01:49:46;;;;;;;7.90;5.40;;;4.30;99.90;;;;;;2081230;28;20183;-64
2021/11/03 01:50:51;;;;;;;7.27;5.17;;;4.40;99.90;;;;;;2081446;28;20181;-65
2021/11/03 01:52:03;;;;;;;9.43;5.43;;;4.40;99.90;;;;;;2080481;28;20652;-64
2021/11/03 01:53:23;;;;;;;7.95;5.43;;;4.40;99.90;;;;;;2080503;28;20255;-64
2021/11/03 01:54:39;;;;;;;6.57;5.15;;;4.40;99.90;;;;;;2075122;28;20287;-65
2021/11/03 01:55:51;;;;;;;10.70;5.47;;;4.40;99.90;;;;;;2074573;28;20191;-64
2021/11/03 01:56:53;;;;;;;7.28;5.03;;;4.40;99.90;;;;;;2074317;28;20171;-64
2021/11/03 01:58:04;;;;;;;8.05;5.13;;;4.50;99.90;;;;;;2072611;28;20213;-64
2021/11/03 01:59:32;;;;;;;8.82;5.43;;;4.50;99.90;;;;;;2073693;28;20271;-64
2021/11/03 02:00:38;;;;;;;7.97;4.95;;;4.50;99.90;;;;;;2080989;28;20188;-64
2021/11/03 02:01:39;;;;;;;7.15;5.07;;;4.50;99.90;;;;;;2080287;28;20176;-64
2021/11/03 02:02:42;;;;;;;11.13;5.80;;;4.40;99.90;;;;;;2080807;28;20225;-64
2021/11/03 02:03:43;;;;;;;9.30;5.85;;;4.40;99.90;;;;;;2080648;28;20208;-64
2021/11/03 02:04:44;;;;;;;11.27;5.95;;;4.40;99.90;;;;;;2072659;28;20184;-64
2021/11/03 02:05:49;;;;;;;8.57;5.43;;;4.40;99.90;;;;;;2072565;28;20192;-64
2021/11/03 02:06:50;;;;;;;9.70;5.68;;;4.50;99.90;;;;;;2073296;28;20168;-64
2021/11/03 02:07:52;;;;;;;8.20;5.07;;;4.50;99.90;;;;;;2080641;28;20272;-64
2021/11/03 02:08:54;;;;;;;5.68;4.15;;;4.50;99.90;;;;;;2080831;28;20183;-64
2021/11/03 02:09:55;;;;;;;5.78;4.65;;;4.50;99.90;;;;;;2080522;28;20253;-64
2021/11/03 02:10:56;;;;;;;6.87;4.97;;;4.50;99.90;;;;;;2081343;28;20180;-64
2021/11/03 02:11:56;;;;;;;6.57;4.00;;;4.50;99.90;;;;;;2080967;28;20558;-65
2021/11/03 02:12:58;;;;;;;6.90;4.60;;;4.60;99.90;;;;;;2081240;28;20188;-64
2021/11/03 02:14:02;;;;;;;6.80;4.18;;;4.60;99.90;;;;;;2080600;28;20188;-64
2021/11/03 02:15:04;;;;;;;7.25;4.40;;;4.60;99.90;;;;;;2080804;28;20184;-65
2021/11/03 02:16:09;;;;;;;6.13;4.45;;;4.60;99.90;;;;;;2081165;28;20194;-65
2021/11/03 02:17:10;;;;;;;6.97;3.85;;;4.60;99.90;;;;;;2080596;28;20208;-64
2021/11/03 02:18:15;;;;;;;5.53;4.10;;;4.60;99.90;;;;;;2080584;28;20184;-64
2021/11/03 02:19:25;;;;;;;5.85;4.38;;;4.60;99.90;;;;;;2073249;28;20191;-64
2021/11/03 02:20:27;;;;;;;6.57;4.40;;;4.60;99.90;;;;;;2080816;28;20451;-65
2021/11/03 02:21:39;;;;;;;6.50;4.00;;;4.60;99.90;;;;;;2080329;28;20265;-65
2021/11/03 02:23:03;;;;;;;5.00;4.03;;;4.60;99.90;;;;;;2080628;28;20176;-65
2021/11/03 02:24:15;;;;;;;5.03;3.45;;;4.60;99.90;;;;;;2075458;28;20291;-64
2021/11/03 02:25:21;;;;;;;5.47;3.92;;;4.60;99.90;;;;;;2080873;28;20248;-64
2021/11/03 02:26:29;;;;;;;4.90;3.70;;;4.60;99.90;;;;;;2080369;28;20705;-64
2021/11/03 02:27:33;;;;;;;5.07;3.28;;;4.60;99.90;;;;;;2080726;28;20254;-64
2021/11/03 02:28:36;;;;;;;5.55;3.70;;;4.60;99.90;;;;;;2081168;28;20184;-64
2021/11/03 02:29:37;;;;;;;4.93;3.55;;;4.60;99.90;;;;;;2081064;28;20558;-64
2021/11/03 02:30:38;;;;;;;5.07;4.00;;;4.60;99.90;;;;;;2081054;28;20260;-65
2021/11/03 02:31:49;;;;;;;6.57;3.90;;;4.60;99.90;;;;;;2080866;28;20184;-64
2021/11/03 02:33:15;;;;;;;5.43;4.05;;;4.70;99.90;;;;;;2081076;28;20176;-65
2021/11/03 02:34:24;;;;;;;4.90;3.72;;;4.70;99.90;;;;;;2081266;28;20259;-64
2021/11/03 02:35:25;;;;;;;5.72;3.50;;;4.70;99.90;;;;;;2081289;28;20276;-64
2021/11/03 02:36:26;;;;;;;5.30;3.30;;;4.70;99.90;;;;;;2081185;28;20184;-64
2021/11/03 02:37:29;;;;;;;4.47;3.35;;;4.70;99.90;;;;;;2081103;28;20201;-64
2021/11/03 02:38:37;;;;;;;7.13;3.20;;;4.70;99.90;;;;;;2081129;28;20241;-64
2021/11/03 02:39:44;;;;;;;4.82;3.35;;;4.70;99.90;;;;;;2081148;28;20494;-64
2021/11/03 02:40:52;;;;;;;4.78;3.22;;;4.70;99.90;;;;;;2080469;28;20184;-64
2021/11/03 02:41:54;;;;;;;5.97;3.58;;;4.70;99.90;;;;;;2073227;28;20186;-64
2021/11/03 02:43:01;;;;;;;5.43;3.28;;;4.70;99.90;;;;;;2072328;28;20193;-64
2021/11/03 02:44:09;;;;;;;4.55;2.80;;;4.70;99.90;;;;;;2080536;28;20204;-64
2021/11/03 02:45:17;;;;;;;4.35;2.35;;;4.70;99.90;;;;;;2080555;28;20225;-64
2021/11/03 02:46:18;;;;;;;5.15;2.90;;;4.70;99.90;;;;;;2080708;28;20176;-64
2021/11/03 02:47:19;;;;;;;3.17;2.33;;;4.70;99.90;;;;;;2081018;28;20742;-64
2021/11/03 02:48:23;;;;;;;3.60;2.77;;;4.70;99.90;;;;;;2082514;28;20173;-65
2021/11/03 02:49:23;;;;;;;4.82;2.40;;;4.70;99.90;;;;;;2082715;28;20188;-64
2021/11/03 02:50:24;;;;;;;3.83;2.23;;;4.70;99.90;;;;;;2082770;28;20596;-64
2021/11/03 02:51:28;;;;;;;2.58;1.73;;;4.70;99.90;;;;;;2082438;28;20193;-64
2021/11/03 02:52:29;;;;;;;2.15;1.80;;;4.70;99.90;;;;;;2082699;28;20572;-64
2021/11/03 02:53:33;;;;;;;3.08;2.28;;;4.70;99.90;;;;;;2082446;28;20575;-64
2021/11/03 02:54:34;;;;;;;2.03;1.80;;;4.70;99.90;;;;;;2082639;28;20222;-64
2021/11/03 02:55:35;;;;;;;2.23;1.40;;;4.70;99.90;;;;;;2082605;28;20180;-64
2021/11/03 02:56:44;;;;;;;2.60;1.50;;;4.80;99.60;;;;;;2082774;28;20176;-65
2021/11/03 02:57:45;;;;;;;2.05;1.40;;;4.80;99.60;;;;;;2082688;28;20199;-64
2021/11/03 02:58:46;;;;;;;2.70;1.70;;;4.70;99.60;;;;;;2082638;28;20184;-65
2021/11/03 02:59:47;;;;;;;2.28;1.40;;;4.70;99.50;;;;;;2082686;28;20204;-64
2021/11/03 03:00:49;;;;;;;2.05;1.60;;;4.70;99.70;;;;;;2082587;28;20176;-64
2021/11/03 03:01:54;;;;;;;1.70;1.35;;;4.70;99.90;;;;;;2082521;28;20187;-64
2021/11/03 03:02:55;;;;;;;2.47;1.40;;;4.70;99.90;;;;;;2082630;28;20192;-64
2021/11/03 03:03:57;;;;;;;1.43;1.23;;;4.70;99.80;;;;;;2082482;28;20204;-64
2021/11/03 03:04:58;;;;;;;1.65;1.20;;;4.70;99.50;;;;;;2082507;28;20184;-64
2021/11/03 03:06:05;;;;;;;3.10;1.10;;;4.70;99.70;;;;;;2082533;28;20180;-64
2021/11/03 03:07:08;;;;;;;1.60;1.10;;;4.70;99.90;;;;;;2082050;28;20173;-64
2021/11/03 03:08:08;;;;;;;1.30;0.98;;;4.70;99.90;;;;;;2073973;28;20567;-64
2021/11/03 03:09:10;;;;;;;1.20;1.00;;;4.70;99.90;;;;;;2081961;28;20183;-64
2021/11/03 03:10:11;;;;;;;1.10;1.00;;;4.70;99.90;;;;;;2082284;28;20529;-64
2021/11/03 03:11:11;;;;;;;1.20;1.00;;;4.60;99.90;;;;;;2082288;28;20183;-64
2021/11/03 03:12:18;;;;;;;1.10;1.00;;;4.70;99.50;;;;;;2082424;28;20201;-64
2021/11/03 03:13:19;;;;;;;1.42;1.20;;;4.70;99.50;;;;;;2083098;28;20371;-64
2021/11/03 03:14:22;;;;;;;2.13;1.10;;;4.70;99.90;;;;;;2082547;28;20669;-64
2021/11/03 03:15:23;;;;;;;0.80;0.80;;;4.70;99.90;;;;;;2082364;28;20185;-64
2021/11/03 03:16:24;;;;;;;1.50;1.00;;;4.70;99.80;;;;;;2082522;28;20183;-64
2021/11/03 03:17:25;;;;;;;1.67;0.93;;;4.70;99.90;;;;;;2082523;28;20211;-64
2021/11/03 03:18:26;;;;;;;1.00;0.82;;;4.70;99.90;;;;;;2082449;28;20592;-64
2021/11/03 03:19:27;;;;;;;1.23;0.97;;;4.70;99.90;;;;;;2082446;28;20198;-64
2021/11/03 03:20:28;;;;;;;1.87;1.00;;;4.70;99.90;;;;;;2082345;28;20180;-64
2021/11/03 03:21:30;;;;;;;1.55;1.00;;;4.70;99.90;;;;;;2082098;28;20185;-64
2021/11/03 03:22:31;;;;;;;1.42;1.10;;;4.70;99.90;;;;;;2082402;28;20180;-64
2021/11/03 03:23:32;;;;;;;0.90;0.80;;;4.70;99.90;;;;;;2082388;28;20572;-64
2021/11/03 03:24:33;;;;;;;3.07;0.90;;;4.80;99.90;;;;;;2082525;28;20181;-64
2021/11/03 03:25:35;;;;;;;1.60;1.00;;;4.80;99.90;;;;;;2082575;28;20204;-64
2021/11/03 03:26:36;;;;;;;1.10;1.00;;;4.80;99.90;;;;;;2082292;28;20186;-64
2021/11/03 03:27:37;;;;;;;1.00;0.73;;;4.80;99.90;;;;;;2082365;28;20238;-64
2021/11/03 03:28:39;;;;;;;2.00;1.00;;;4.80;99.40;;;;;;2082325;28;20242;-64
2021/11/03 03:29:40;;;;;;;0.68;0.68;;;4.70;99.70;;;;;;2082740;28;20180;-63
2021/11/03 03:30:41;;;;;;;0.57;0.57;;;4.70;99.80;;;;;;2082918;28;20184;-64
2021/11/03 03:31:42;;;;;;;1.30;0.80;;;4.80;99.90;;;;;;2082614;28;20173;-64
2021/11/03 03:32:43;;;;;;;0.88;0.60;;;4.80;99.90;;;;;;2082484;28;20205;-64
2021/11/03 03:33:47;;;;;;;1.87;1.10;;;4.80;99.90;;;;;;2082533;28;20200;-64
2021/11/03 03:34:47;;;;;;;1.00;0.88;;;4.80;99.90;;;;;;2082305;28;20184;-64
2021/11/03 03:35:48;;;;;;;1.20;0.90;;;4.80;99.90;;;;;;2082297;28;20554;-64
2021/11/03 03:36:50;;;;;;;1.57;1.13;;;4.80;99.90;;;;;;2082182;28;20289;-64
2021/11/03 03:37:51;;;;;;;1.75;1.00;;;4.80;99.90;;;;;;2082281;28;20231;-64
2021/11/03 03:38:53;;;;;;;0.70;0.70;;;4.80;99.90;;;;;;2082284;28;20220;-64
2021/11/03 03:39:53;;;;;;;2.70;0.98;;;4.80;99.90;;;;;;2082328;28;20609;-64
2021/11/03 03:40:54;;;;;;;0.80;0.80;;;4.80;99.90;;;;;;2082201;28;20188;-64
2021/11/03 03:42:05;;;;;;;0.60;0.60;;;4.90;99.90;;;;;;2082057;28;20271;-65
2021/11/03 03:43:06;;;;;;;0.73;0.70;;;4.90;99.90;;;;;;2082046;28;20632;-64
2021/11/03 03:44:07;;;;;;;1.92;0.70;;;4.90;99.90;;;;;;2082111;28;20208;-64
2021/11/03 03:45:09;;;;;;;0.90;0.70;;;4.90;99.90;;;;;;2082184;28;20196;-64
2021/11/03 03:46:10;;;;;;;0.70;0.60;;;4.90;99.80;;;;;;2082453;28;20177;-64
2021/11/03 03:47:12;;;;;;;0.50;0.50;;;4.90;99.90;;;;;;2081864;28;20196;-64
2021/11/03 03:48:12;;;;;;;0.93;0.70;;;4.90;99.90;;;;;;2082023;28;20176;-64
2021/11/03 03:49:13;;;;;;;1.40;0.80;;;4.90;99.90;;;;;;2080199;28;20234;-67
2021/11/03 03:50:14;;;;;;;1.67;0.77;;;4.90;99.90;;;;;;2082099;28;20273;-64
2021/11/03 03:51:15;;;;;;;0.80;0.70;;;4.90;99.90;;;;;;2081875;28;20207;-64
2021/11/03 03:52:16;;;;;;;1.83;0.65;;;4.90;99.90;;;;;;2082220;28;20209;-64
2021/11/03 03:53:16;;;;;;;0.90;0.70;;;4.90;99.90;;;;;;2081699;28;20187;-64
2021/11/03 03:54:17;;;;;;;1.00;0.67;;;4.90;99.90;;;;;;2082118;28;20238;-64
2021/11/03 03:55:18;;;;;;;1.53;0.50;;;4.90;99.90;;;;;;2082232;28;20181;-64
2021/11/03 03:56:20;;;;;;;3.53;0.80;;;4.90;99.90;;;;;;2082224;28;20422;-64
2021/11/03 03:57:21;;;;;;;1.27;0.73;;;4.80;99.90;;;;;;2081896;28;20685;-64
2021/11/03 03:58:22;;;;;;;0.60;0.60;;;4.80;99.90;;;;;;2082215;28;20474;-64
2021/11/03 03:59:23;;;;;;;0.50;0.50;;;4.90;99.90;;;;;;2081345;28;20196;-64
2021/11/03 04:00:24;;;;;;;0.65;0.50;;;4.80;99.90;;;;;;2082132;28;20224;-64
2021/11/03 04:01:27;;;;;;;0.63;0.55;;;4.80;99.90;;;;;;2081854;28;20186;-64
2021/11/03 04:02:28;;;;;;;1.65;0.60;;;4.80;99.90;;;;;;2082203;28;20263;-64
2021/11/03 04:03:29;;;;;;;0.40;0.40;;;4.80;99.90;;;;;;2081951;28;20666;-64
2021/11/03 04:04:29;;;;;;;0.50;0.50;;;4.90;99.90;;;;;;2082161;28;20181;-64
2021/11/03 04:05:30;;;;;;;1.43;0.70;;;4.90;99.90;;;;;;2082018;28;20645;-64
2021/11/03 04:06:31;;;;;;;1.03;0.77;;;4.90;99.90;;;;;;2081973;28;20176;-64
2021/11/03 04:07:31;;;;;;;0.70;0.70;;;4.90;99.90;;;;;;2081866;28;20208;-64
2021/11/03 04:08:32;;;;;;;0.50;0.50;;;4.90;99.90;;;;;;2082120;28;20179;-64
2021/11/03 04:09:33;;;;;;;2.20;0.90;;;4.90;99.90;;;;;;2081922;28;20648;-64
2021/11/03 04:10:33;;;;;;;0.70;0.60;;;4.90;99.90;;;;;;2082093;28;20173;-64
2021/11/03 04:11:35;;;;;;;0.67;0.50;;;4.80;99.90;;;;;;2081829;28;20709;-64
2021/11/03 04:12:36;;;;;;;0.80;0.80;;;4.80;99.90;;;;;;2082073;28;20179;-64
2021/11/03 04:13:37;;;;;;;1.23;0.67;;;4.80;99.90;;;;;;2081969;28;20668;-64
2021/11/03 04:14:37;;;;;;;1.70;0.50;;;4.90;99.90;;;;;;2082094;28;20228;-64
2021/11/03 04:15:38;;;;;;;1.87;0.60;;;4.90;99.90;;;;;;2081956;28;20180;-64
2021/11/03 04:16:39;;;;;;;0.80;0.60;;;4.90;99.90;;;;;;2082064;28;20184;-64
2021/11/03 04:17:40;;;;;;;1.07;0.60;;;5.00;99.90;;;;;;2089351;28;20203;-64
2021/11/03 04:18:41;;;;;;;2.42;0.68;;;4.90;99.90;;;;;;2089484;28;20647;-64
2021/11/03 04:19:42;;;;;;;0.50;0.50;;;4.90;99.90;;;;;;2082069;28;20184;-64
2021/11/03 04:20:42;;;;;;;2.63;0.60;;;4.90;99.90;;;;;;2081788;28;20184;-63
2021/11/03 04:21:43;;;;;;;2.00;0.70;;;5.00;99.90;;;;;;2081901;28;20212;-63
2021/11/03 04:22:44;;;;;;;1.13;0.60;;;5.00;99.90;;;;;;2081857;28;20203;-64
2021/11/03 04:23:45;;;;;;;0.50;0.50;;;5.00;99.90;;;;;;2081972;28;20220;-64
2021/11/03 04:24:46;;;;;;;0.50;0.50;;;5.00;99.90;;;;;;2081880;28;20181;-64
2021/11/03 04:25:47;;;;;;;0.40;0.40;;;5.00;99.90;;;;;;2081788;28;20451;-64
2021/11/03 04:26:50;;;;;;;1.38;0.60;;;5.00;99.90;;;;;;2081823;28;20177;-64
2021/11/03 04:27:51;;;;;;;0.50;0.50;;;5.00;99.90;;;;;;2081780;28;20228;-64
2021/11/03 04:28:52;;;;;;;0.70;0.70;;;5.00;99.90;;;;;;2082050;28;20176;-64
2021/11/03 04:29:53;;;;;;;0.50;0.50;;;5.00;99.90;;;;;;2081961;28;20191;-64
2021/11/03 04:30:54;;;;;;;2.13;0.50;;;5.00;99.90;;;;;;2081663;28;20699;-64
2021/11/03 04:31:54;;;;;;;1.83;0.60;;;5.00;99.90;;;;;;2081884;28;20275;-63
2021/11/03 04:32:56;;;;;;;0.70;0.60;;;5.00;99.90;;;;;;2081954;28;20278;-64
2021/11/03 04:33:57;;;;;;;0.50;0.50;;;5.00;99.90;;;;;;2081850;28;20196;-64
2021/11/03 04:34:57;;;;;;;2.27;0.70;;;5.00;99.90;;;;;;2081819;28;20267;-64
2021/11/03 04:35:58;;;;;;;0.90;0.70;;;5.00;99.90;;;;;;2081782;28;20181;-63
2021/11/03 04:36:59;;;;;;;1.43;0.60;;;5.10;99.90;;;;;;2081634;28;20208;-64
2021/11/03 04:38:00;;;;;;;0.87;0.70;;;5.10;99.90;;;;;;2081864;28;20208;-63
2021/11/03 04:39:05;;;;;;;0.80;0.70;;;5.10;99.90;;;;;;2081869;28;20177;-64
2021/11/03 04:40:12;;;;;;;1.70;0.80;;;5.10;99.90;;;;;;2081820;28;20169;-64
2021/11/03 04:41:13;;;;;;;2.38;0.77;;;5.10;99.90;;;;;;2081512;28;20183;-64
2021/11/03 04:42:13;;;;;;;1.57;1.40;;;5.00;99.90;;;;;;2081819;28;20207;-64
2021/11/03 04:43:14;;;;;;;4.43;2.47;;;5.00;99.90;;;;;;2081647;28;20227;-64
2021/11/03 04:44:15;;;;;;;2.60;2.00;;;5.00;99.90;;;;;;2081732;28;20307;-64
2021/11/03 04:45:18;;;;;;;1.25;0.90;;;5.10;99.90;;;;;;2081635;28;20180;-64
2021/11/03 04:46:19;;;;;;;1.50;1.40;;;5.10;99.90;;;;;;2081792;28;20193;-64
2021/11/03 04:47:19;;;;;;;1.07;0.90;;;5.00;99.90;;;;;;2081551;28;20570;-64
2021/11/03 04:48:20;;;;;;;1.37;1.00;;;5.00;99.90;;;;;;2081697;28;20176;-64
2021/11/03 04:49:21;;;;;;;0.87;0.70;;;5.00;99.90;;;;;;2081645;28;20532;-63
2021/11/03 04:50:28;;;;;;;1.53;0.70;;;5.00;99.90;;;;;;2081632;28;20306;-64
2021/11/03 04:51:29;;;;;;;1.70;1.30;;;4.90;99.90;;;;;;2081500;28;20256;-64
2021/11/03 04:52:30;;;;;;;5.17;3.20;;;4.90;99.90;;;;;;2081592;28;20568;-64
2021/11/03 04:53:30;;;;;;;1.20;1.00;;;4.90;99.90;;;;;;2081687;28;20187;-65
2021/11/03 04:54:31;;;;;;;0.80;0.80;;;4.80;99.90;;;;;;2081822;28;20184;-65
2021/11/03 04:55:32;;;;;;;1.07;0.83;;;4.70;99.90;;;;;;2081501;28;20319;-65
2021/11/03 04:56:34;;;;;;;2.20;2.00;;;4.70;99.90;;;;;;2081728;28;20187;-65
2021/11/03 04:57:36;;;;;;;2.45;1.55;;;4.70;99.90;;;;;;2081385;28;20195;-64
2021/11/03 04:58:36;;;;;;;3.35;1.10;;;4.70;99.90;;;;;;2081638;28;20234;-64
2021/11/03 04:59:37;;;;;;;1.23;1.13;;;4.80;99.90;;;;;;2081501;28;20258;-64
2021/11/03 05:00:39;;;;;;;1.80;1.30;;;4.80;99.90;;;;;;2081544;28;20187;-64
2021/11/03 05:01:40;;;;;;;1.40;1.30;;;4.80;99.90;;;;;;2081280;28;20600;-64
2021/11/03 05:02:40;;;;;;;1.93;1.47;;;4.80;99.90;;;;;;2081616;28;20173;-64
2021/11/03 05:03:41;;;;;;;1.60;1.27;;;4.80;99.90;;;;;;2081428;28;20716;-64
2021/11/03 05:04:42;;;;;;;1.83;1.40;;;4.80;99.90;;;;;;2081748;28;20536;-64
2021/11/03 05:05:44;;;;;;;1.08;0.98;;;4.90;99.90;;;;;;2081509;28;20666;-64
2021/11/03 05:06:48;;;;;;;1.63;1.10;;;4.90;99.90;;;;;;2081592;28;20259;-64
2021/11/03 05:07:49;;;;;;;1.17;1.00;;;4.90;99.90;;;;;;2081512;28;20212;-64
2021/11/03 05:08:50;;;;;;;0.93;0.90;;;4.90;99.90;;;;;;2081498;28;20572;-64
2021/11/03 05:09:51;;;;;;;1.00;0.80;;;4.90;99.90;;;;;;2081511;28;20713;-64
2021/11/03 05:10:53;;;;;;;1.73;0.80;;;4.90;99.90;;;;;;2081037;28;20181;-64
2021/11/03 05:11:54;;;;;;;1.20;0.90;;;4.90;99.90;;;;;;2080741;28;20180;-64
2021/11/03 05:12:54;;;;;;;0.80;0.70;;;4.90;99.90;;;;;;2081660;28;20215;-64
2021/11/03 05:13:56;;;;;;;0.80;0.80;;;4.90;99.90;;;;;;2088830;28;20203;-64
2021/11/03 05:14:56;;;;;;;1.52;1.10;;;4.90;99.90;;;;;;2089078;28;20267;-64
2021/11/03 05:15:57;;;;;;;1.30;0.90;;;4.90;99.90;;;;;;2081461;28;20263;-64
2021/11/03 05:16:58;;;;;;;1.67;0.80;;;4.90;99.90;;;;;;2081455;28;20379;-64
2021/11/03 05:17:59;;;;;;;1.67;0.90;;;5.00;99.90;;;;;;2081492;28;20187;-64
2021/11/03 05:19:00;;;;;;;1.63;1.00;;;5.00;99.90;;;;;;2081398;28;20184;-64
2021/11/03 05:20:01;;;;;;;1.02;0.90;;;5.00;99.90;;;;;;2081577;28;20425;-64
2021/11/03 05:21:02;;;;;;;0.95;0.70;;;5.00;99.90;;;;;;2081229;28;20653;-64
2021/11/03 05:22:04;;;;;;;1.73;0.87;;;5.00;99.90;;;;;;2081317;28;20199;-64
2021/11/03 05:23:05;;;;;;;1.40;0.90;;;5.00;99.90;;;;;;2081475;28;20272;-64
2021/11/03 05:24:06;;;;;;;3.00;1.20;;;5.00;99.90;;;;;;2081350;28;20219;-64
2021/11/03 05:25:07;;;;;;;4.30;3.90;;;5.00;99.90;;;;;;2081386;28;20180;-64
2021/11/03 05:26:09;;;;;;;2.70;2.50;;;5.00;99.90;;;;;;2081354;28;20535;-64
2021/11/03 05:27:13;;;;;;;2.30;2.10;;;5.00;99.90;;;;;;2081183;28;20556;-64
2021/11/03 05:28:13;;;;;;;2.05;1.85;;;5.00;99.90;;;;;;2081533;28;20196;-64
2021/11/03 05:29:16;;;;;;;2.07;1.87;;;5.00;99.90;;;;;;2081341;28;20233;-64